Main page
METAR-TAF:

METAR-TAF

Airports :

Apalachicola Regional Airport

Apalachicola, Florida, United States

latitude: 29-43-37N, longitude: 085-01-29W, elevation: 20 ft

Current weather observation

The report was made 51 minutes ago, at 01:53 UTC
Wind 8 mph from the West/Southwest
Temperature 82°F
Humidity 84%
Pressure 29.95 in. Hg
Visibility: 10 miles
Clear sky

METAR: KAAF 150153Z AUTO 25007KT 10SM CLR 28/25 A2995 RMK AO2 SLP142 T02830250

Time: 22:44 (02:44 UTC)


TAF: missing

Weather observations and forecasts of more than 4000 airports (METAR and TAF reports).

The available stations are represented by yellow and red dots on the map.

Hover mouse over dot to see the name of the station.

Then click to see weather observations and forecasts.

To change the map : click on the green buttons with a black cross to zoom in, on the green button with a dash to zoom out, or on the green arrows for adjacent maps.


METAR-TAF: